Hammond, New York
Current Conditions -  °F | °C
As of 10:32 PM on Monday 20 Oct 2014 (Local Time) from KGTB Reporting Station
Overcast Overcast  
Wind Chill: 42°   Ceiling: 4600
Heat Index: 46°   Visibility: 10mi
Dew Point: 41°   Wind: 9mph
Humidity: 81%   Direction: 140°SE
Pressure: 29.86"   Gusts: NA
Location:  44.45°N, 75.69°W
Report Text: KGTB 210232Z AUTO 14008KT 10SM OVC046 08/05 A2986 RMK AO2 DZB0221E0232
Loading
Personal Weather Stations






























Interactive Weather Map
Tropical Storm Tracking
New forecast layout! Learn more

10-Day Weather Forecast

Advertisements
Track Severe Weather on mobile